createdAt,value
2023-01-10T00:01:48.214Z,9.50
2023-01-10T00:04:15.563Z,10.49
2023-01-10T00:06:42.939Z,10.23
2023-01-10T00:09:11.275Z,10.18
2023-01-10T00:11:58.777Z,10.45
2023-01-10T00:14:29.958Z,10.36
2023-01-10T00:16:57.530Z,10.30
2023-01-10T00:19:25.167Z,9.82
2023-01-10T00:21:53.462Z,9.41
2023-01-10T00:24:21.788Z,9.66
2023-01-10T00:26:53.771Z,10.21
2023-01-10T00:29:29.280Z,10.72
2023-01-10T00:31:57.232Z,10.13
2023-01-10T00:34:24.603Z,10.66
2023-01-10T00:36:51.875Z,10.60
2023-01-10T00:39:20.953Z,10.54
2023-01-10T00:42:07.064Z,10.56
2023-01-10T00:44:34.498Z,10.23
2023-01-10T00:47:01.912Z,10.58
2023-01-10T00:49:29.219Z,10.44
2023-01-10T00:51:58.370Z,10.61
2023-01-10T00:54:26.142Z,10.57
2023-01-10T00:56:53.437Z,10.74
2023-01-10T00:59:20.792Z,10.87
2023-01-10T01:01:48.200Z,9.90
2023-01-10T01:04:15.576Z,10.09
2023-01-10T01:06:47.568Z,10.17
2023-01-10T01:09:15.337Z,9.85
2023-01-10T01:11:42.908Z,9.99
2023-01-10T01:14:10.221Z,10.31
2023-01-10T01:16:37.546Z,10.49
2023-01-10T01:19:04.808Z,10.46
2023-01-10T01:21:32.114Z,9.88
2023-01-10T01:23:59.381Z,10.29
2023-01-10T01:26:28.174Z,9.96
2023-01-10T01:28:55.551Z,10.14
2023-01-10T01:31:23.000Z,9.82
2023-01-10T01:33:51.629Z,9.79
2023-01-10T01:36:20.140Z,10.17
2023-01-10T01:38:47.422Z,10.45
2023-01-10T01:41:33.130Z,10.47
2023-01-10T01:44:20.664Z,9.99
2023-01-10T01:47:07.299Z,9.90
2023-01-10T01:49:39.064Z,10.03
2023-01-10T01:52:11.366Z,10.30
2023-01-10T01:54:38.624Z,9.51
2023-01-10T01:57:11.371Z,9.98
2023-01-10T01:59:41.863Z,10.38
2023-01-10T02:02:19.910Z,10.01
2023-01-10T02:04:54.401Z,9.96
2023-01-10T02:07:22.776Z,10.41
2023-01-10T02:09:59.798Z,9.89
2023-01-10T02:12:29.173Z,10.11
2023-01-10T02:14:57.265Z,10.28
2023-01-10T02:17:24.565Z,10.08
2023-01-10T02:19:58.770Z,10.46
2023-01-10T02:22:50.899Z,10.12
2023-01-10T02:25:36.395Z,10.02
2023-01-10T02:28:28.533Z,10.33
2023-01-10T02:31:37.117Z,10.07
2023-01-10T02:34:10.476Z,9.98
2023-01-10T02:36:54.378Z,9.77
2023-01-10T02:39:32.874Z,9.66
2023-01-10T02:42:07.144Z,9.44
2023-01-10T02:44:39.839Z,9.43
2023-01-10T02:47:08.251Z,9.70
2023-01-10T02:49:42.806Z,10.01
2023-01-10T02:52:11.810Z,10.12
2023-01-10T02:54:39.085Z,9.42
2023-01-10T02:57:18.768Z,9.65
2023-01-10T03:00:09.795Z,9.89
2023-01-10T03:02:43.153Z,9.68
2023-01-10T03:05:13.203Z,9.94
2023-01-10T03:07:44.113Z,9.97
2023-01-10T03:10:19.631Z,9.76
2023-01-10T03:12:55.287Z,9.79
2023-01-10T03:15:24.626Z,9.73
2023-01-10T03:17:56.153Z,9.42
2023-01-10T03:20:23.945Z,9.65
2023-01-10T03:22:53.181Z,10.20
2023-01-10T03:25:24.389Z,10.21
2023-01-10T03:28:13.088Z,9.69
2023-01-10T03:30:47.900Z,9.78
2023-01-10T03:33:18.148Z,10.16
2023-01-10T03:36:03.808Z,10.01
2023-01-10T03:38:56.674Z,10.33
2023-01-10T03:41:32.931Z,10.15
2023-01-10T03:44:38.148Z,10.38
2023-01-10T03:47:09.743Z,10.16
2023-01-10T03:49:39.798Z,10.00
2023-01-10T03:52:11.826Z,10.20
2023-01-10T03:54:39.112Z,10.25
2023-01-10T03:57:07.939Z,9.81
2023-01-10T03:59:35.247Z,9.46
2023-01-10T04:02:02.693Z,9.90
2023-01-10T04:04:30.008Z,9.73
2023-01-10T04:06:57.372Z,9.34
2023-01-10T04:09:24.623Z,9.41
2023-01-10T04:11:51.870Z,9.62
2023-01-10T04:14:19.121Z,9.70
2023-01-10T04:16:46.337Z,10.15
2023-01-10T04:19:13.593Z,10.35
2023-01-10T04:21:41.002Z,10.23
2023-01-10T04:24:08.316Z,10.53
2023-01-10T04:26:35.681Z,10.44
2023-01-10T04:29:03.996Z,10.32
2023-01-10T04:31:31.418Z,10.30
2023-01-10T04:33:58.722Z,10.09
2023-01-10T04:36:26.150Z,10.13
2023-01-10T04:38:53.865Z,10.07
2023-01-10T04:41:21.219Z,10.22
2023-01-10T04:43:49.752Z,9.87
2023-01-10T04:46:17.417Z,10.09
2023-01-10T04:48:44.755Z,10.00
2023-01-10T04:51:12.459Z,9.59
2023-01-10T04:53:39.692Z,9.81
2023-01-10T04:56:08.518Z,9.94
2023-01-10T04:58:37.660Z,9.78
2023-01-10T05:01:13.275Z,10.12
2023-01-10T05:03:41.162Z,10.04
2023-01-10T05:06:08.768Z,9.70
2023-01-10T05:08:36.782Z,9.80
2023-01-10T05:11:04.245Z,9.72
2023-01-10T05:13:31.493Z,9.13
2023-01-10T05:15:59.202Z,9.35
2023-01-10T05:18:27.587Z,8.97
2023-01-10T05:21:06.239Z,8.92
2023-01-10T05:23:33.979Z,8.33
2023-01-10T05:26:10.404Z,8.46
2023-01-10T05:28:38.660Z,8.41
2023-01-10T05:31:10.232Z,8.14
2023-01-10T05:33:37.663Z,8.03
2023-01-10T05:36:06.370Z,8.72
2023-01-10T05:38:34.273Z,8.11
2023-01-10T05:41:01.785Z,8.00
2023-01-10T05:43:29.529Z,8.17
2023-01-10T05:45:56.859Z,7.80
2023-01-10T05:48:24.311Z,7.88
2023-01-10T05:50:52.183Z,7.73
2023-01-10T05:53:20.442Z,7.86
2023-01-10T05:55:58.142Z,8.67
2023-01-10T05:58:25.445Z,7.84
2023-01-10T06:00:53.595Z,7.76
2023-01-10T06:03:21.035Z,7.91
2023-01-10T06:05:49.003Z,7.98
2023-01-10T06:08:16.891Z,7.62
2023-01-10T06:10:44.479Z,7.65
2023-01-10T06:13:13.399Z,7.98
2023-01-10T06:15:40.809Z,8.38
2023-01-10T06:18:11.175Z,8.28
2023-01-10T06:20:40.601Z,8.07
2023-01-10T06:23:08.010Z,7.77
2023-01-10T06:25:40.218Z,8.38
2023-01-10T06:28:08.985Z,8.99
2023-01-10T06:30:36.656Z,8.84
2023-01-10T06:33:08.700Z,8.45
2023-01-10T06:35:36.400Z,8.04
2023-01-10T06:38:03.829Z,7.94
2023-01-10T06:40:31.272Z,7.80
2023-01-10T06:42:59.266Z,7.56
2023-01-10T06:45:26.670Z,7.73
2023-01-10T06:47:53.965Z,7.65
2023-01-10T06:50:21.664Z,8.22
2023-01-10T06:53:07.141Z,8.03
2023-01-10T06:55:34.486Z,7.89
2023-01-10T06:58:03.465Z,8.21
2023-01-10T07:00:31.879Z,8.09
2023-01-10T07:03:00.373Z,8.11
2023-01-10T07:05:29.129Z,8.55
2023-01-10T07:07:57.967Z,8.41
2023-01-10T07:10:25.209Z,8.14
2023-01-10T07:12:55.300Z,8.12
2023-01-10T07:15:22.785Z,7.92
2023-01-10T07:17:50.021Z,7.69
2023-01-10T07:20:17.529Z,7.50
2023-01-10T07:22:45.037Z,7.52
2023-01-10T07:25:12.531Z,8.08
2023-01-10T07:27:43.322Z,8.40
2023-01-10T07:30:11.259Z,8.36
2023-01-10T07:32:45.982Z,8.39
2023-01-10T07:35:13.296Z,8.50
2023-01-10T07:37:40.622Z,8.25
2023-01-10T07:40:08.626Z,8.73
2023-01-10T07:42:36.326Z,8.55
2023-01-10T07:45:03.796Z,8.29
2023-01-10T07:47:31.179Z,9.03
2023-01-10T07:49:58.522Z,8.91
2023-01-10T07:52:25.869Z,8.74
2023-01-10T07:54:53.347Z,8.80
2023-01-10T07:57:20.558Z,9.36
2023-01-10T07:59:47.916Z,9.22
2023-01-10T08:02:15.414Z,9.47
2023-01-10T08:04:42.839Z,9.17
2023-01-10T08:07:10.036Z,9.21
2023-01-10T08:09:37.691Z,9.63
2023-01-10T08:12:05.156Z,9.64
2023-01-10T08:14:32.454Z,9.46
2023-01-10T08:17:00.850Z,9.58
2023-01-10T08:19:28.152Z,9.63
2023-01-10T08:21:56.194Z,9.33
2023-01-10T08:24:23.433Z,9.26
2023-01-10T08:26:51.090Z,8.98
2023-01-10T08:29:18.420Z,8.79
2023-01-10T08:31:45.820Z,9.01
2023-01-10T08:34:13.794Z,9.28
2023-01-10T08:36:41.178Z,9.63
2023-01-10T08:39:08.527Z,9.30
2023-01-10T08:41:35.870Z,9.18
2023-01-10T08:44:03.278Z,9.07
2023-01-10T08:46:30.667Z,9.22
2023-01-10T08:48:58.027Z,9.28
2023-01-10T08:51:25.270Z,9.47
2023-01-10T08:53:53.111Z,9.32
2023-01-10T08:56:20.389Z,9.22
2023-01-10T08:58:47.614Z,9.08
2023-01-10T09:01:14.988Z,9.06
2023-01-10T09:03:42.359Z,8.93
2023-01-10T09:06:10.196Z,9.26
2023-01-10T09:08:38.060Z,9.10
2023-01-10T09:11:06.090Z,9.23
2023-01-10T09:13:34.144Z,9.01
2023-01-10T09:16:01.562Z,9.32
2023-01-10T09:18:29.034Z,9.29
2023-01-10T09:20:56.550Z,9.33
2023-01-10T09:23:24.031Z,9.03
2023-01-10T09:25:53.926Z,9.00
2023-01-10T09:28:22.300Z,9.01
2023-01-10T09:30:49.862Z,9.33
2023-01-10T09:33:17.293Z,8.88
2023-01-10T09:35:45.054Z,9.69
2023-01-10T09:38:17.476Z,9.12
2023-01-10T09:41:00.296Z,9.46
2023-01-10T09:43:46.433Z,8.92
2023-01-10T09:46:26.778Z,9.09
2023-01-10T09:49:12.852Z,9.13
2023-01-10T09:51:51.587Z,8.62
2023-01-10T09:54:36.721Z,9.02
2023-01-10T09:57:04.425Z,8.88
2023-01-10T09:59:43.077Z,8.87
2023-01-10T10:02:39.589Z,9.39
2023-01-10T10:05:23.807Z,9.44
2023-01-10T10:07:59.992Z,9.59
2023-01-10T10:10:35.210Z,9.96
2023-01-10T10:13:27.394Z,9.99
2023-01-10T10:16:02.601Z,9.50
2023-01-10T10:18:43.064Z,9.60
2023-01-10T10:21:30.579Z,9.98
2023-01-10T10:24:23.647Z,9.71
2023-01-10T10:27:11.211Z,9.42
2023-01-10T10:30:05.566Z,9.36
2023-01-10T10:32:51.189Z,9.46
2023-01-10T10:35:25.506Z,9.19
2023-01-10T10:37:54.743Z,9.17
2023-01-10T10:40:25.992Z,8.75
2023-01-10T10:42:56.732Z,8.69
2023-01-10T10:45:39.719Z,9.21
2023-01-10T10:48:18.344Z,9.16
2023-01-10T10:50:56.324Z,9.04
2023-01-10T10:53:23.859Z,9.10
2023-01-10T10:55:51.532Z,9.52
2023-01-10T10:58:19.346Z,9.67
2023-01-10T11:00:52.139Z,9.42
2023-01-10T11:03:28.093Z,9.32
2023-01-10T11:05:55.814Z,8.94
2023-01-10T11:08:27.507Z,9.24
2023-01-10T11:10:59.699Z,9.05
2023-01-10T11:13:33.407Z,9.46
2023-01-10T11:16:06.152Z,9.34
2023-01-10T11:18:34.043Z,9.50
2023-01-10T11:21:13.435Z,9.49
2023-01-10T11:23:40.675Z,9.77
2023-01-10T11:26:25.294Z,9.73
2023-01-10T11:29:03.586Z,9.46
2023-01-10T11:31:32.211Z,9.55
2023-01-10T11:34:01.354Z,9.74
2023-01-10T11:36:28.619Z,9.63
2023-01-10T11:39:04.780Z,9.97
2023-01-10T11:41:34.541Z,10.21
2023-01-10T11:44:24.686Z,10.48
2023-01-10T11:46:57.319Z,10.28
2023-01-10T11:49:41.444Z,10.15
2023-01-10T11:52:35.046Z,9.88
2023-01-10T11:55:02.809Z,10.35
2023-01-10T11:57:32.027Z,10.10
2023-01-10T12:00:02.893Z,10.07
2023-01-10T12:02:44.248Z,9.82
2023-01-10T12:05:20.448Z,10.47
2023-01-10T12:07:58.938Z,10.45
2023-01-10T12:10:28.509Z,10.11
2023-01-10T12:13:00.992Z,10.48
2023-01-10T12:15:30.421Z,10.74
2023-01-10T12:18:03.100Z,10.58
2023-01-10T12:20:32.920Z,10.76
2023-01-10T12:23:04.088Z,10.45
2023-01-10T12:25:36.312Z,10.23
2023-01-10T12:28:04.252Z,10.51
2023-01-10T12:30:35.117Z,10.42
2023-01-10T12:33:06.130Z,10.71
2023-01-10T12:35:42.613Z,10.53
2023-01-10T12:38:21.472Z,10.37
2023-01-10T12:40:58.864Z,10.53
2023-01-10T12:44:02.856Z,10.06
2023-01-10T12:47:05.332Z,10.50
2023-01-10T12:49:52.196Z,10.27
2023-01-10T12:52:45.691Z,10.13
2023-01-10T12:55:19.265Z,10.23
2023-01-10T12:57:54.088Z,10.49
2023-01-10T13:00:26.807Z,10.75
2023-01-10T13:02:56.960Z,11.18
2023-01-10T13:05:27.365Z,11.27
2023-01-10T13:08:00.583Z,11.14
2023-01-10T13:10:30.109Z,11.31
2023-01-10T13:13:04.680Z,11.03
2023-01-10T13:15:36.124Z,11.20
2023-01-10T13:18:29.137Z,11.37
2023-01-10T13:21:09.042Z,10.96
2023-01-10T13:23:46.675Z,11.03
2023-01-10T13:26:14.019Z,11.53
2023-01-10T13:28:58.905Z,11.11
2023-01-10T13:31:32.163Z,11.56
2023-01-10T13:34:07.568Z,11.29
2023-01-10T13:36:40.773Z,11.42
2023-01-10T13:39:31.447Z,11.44
2023-01-10T13:42:17.476Z,11.48
2023-01-10T13:45:10.112Z,11.45
2023-01-10T13:47:40.565Z,11.62
2023-01-10T13:50:23.520Z,11.58
2023-01-10T13:53:14.939Z,11.46
2023-01-10T13:55:53.601Z,11.49
2023-01-10T13:58:42.676Z,11.38
2023-01-10T14:01:51.794Z,11.08
2023-01-10T14:04:22.329Z,11.34
2023-01-10T14:07:01.377Z,11.59
2023-01-10T14:09:33.833Z,11.98
2023-01-10T14:12:04.038Z,12.13
2023-01-10T14:14:32.984Z,12.11
2023-01-10T14:17:15.797Z,12.17
2023-01-10T14:19:45.726Z,12.14
2023-01-10T14:22:34.249Z,12.09
2023-01-10T14:25:05.119Z,11.88
2023-01-10T14:27:46.832Z,11.87
2023-01-10T14:30:21.391Z,12.02
2023-01-10T14:32:51.260Z,12.16
2023-01-10T14:35:22.031Z,12.16
2023-01-10T14:37:57.847Z,12.26
2023-01-10T14:40:43.435Z,12.19
2023-01-10T14:43:19.585Z,12.47
2023-01-10T14:45:51.119Z,12.38
2023-01-10T14:48:42.273Z,12.40
2023-01-10T14:51:21.392Z,12.24
2023-01-10T14:54:11.215Z,12.30
2023-01-10T14:56:40.763Z,12.39
2023-01-10T14:59:37.033Z,12.71
2023-01-10T15:02:20.154Z,12.57
2023-01-10T15:05:07.812Z,12.54
2023-01-10T15:07:35.881Z,12.57
2023-01-10T15:10:18.113Z,12.61
2023-01-10T15:12:45.833Z,12.71
2023-01-10T15:15:19.759Z,12.47
2023-01-10T15:17:47.358Z,12.64
2023-01-10T15:20:19.329Z,12.67
2023-01-10T15:22:55.434Z,12.70
2023-01-10T15:25:30.327Z,12.28
2023-01-10T15:27:58.566Z,12.40
2023-01-10T15:30:28.508Z,12.42
2023-01-10T15:32:58.392Z,12.80
2023-01-10T15:35:35.248Z,12.58
2023-01-10T15:38:07.128Z,12.61
2023-01-10T15:40:37.268Z,12.70
2023-01-10T15:43:10.497Z,12.71
2023-01-10T15:45:39.898Z,12.81
2023-01-10T15:48:31.855Z,12.89
2023-01-10T15:51:03.726Z,12.82
2023-01-10T15:54:04.079Z,12.84
2023-01-10T15:56:34.687Z,12.70
2023-01-10T15:59:03.266Z,12.74
2023-01-10T16:01:32.152Z,12.64
2023-01-10T16:04:02.059Z,12.66
2023-01-10T16:06:31.386Z,12.82
2023-01-10T16:09:04.279Z,12.68
2023-01-10T16:11:55.079Z,12.61
2023-01-10T16:14:22.648Z,12.76
2023-01-10T16:16:50.006Z,12.78
2023-01-10T16:19:17.320Z,12.77
2023-01-10T16:21:47.376Z,12.88
2023-01-10T16:24:21.522Z,12.59
2023-01-10T16:26:49.987Z,12.85
2023-01-10T16:29:20.481Z,12.86
2023-01-10T16:31:48.362Z,12.66
2023-01-10T16:34:15.706Z,12.74
2023-01-10T16:36:43.474Z,12.84
2023-01-10T16:39:21.939Z,12.73
2023-01-10T16:42:07.603Z,12.74
2023-01-10T16:44:34.863Z,12.59
2023-01-10T16:47:04.373Z,12.86
2023-01-10T16:49:33.948Z,12.81
2023-01-10T16:52:01.224Z,12.51
2023-01-10T16:54:28.595Z,12.73
2023-01-10T16:56:55.980Z,13.06
2023-01-10T16:59:23.359Z,12.98
2023-01-10T17:01:55.881Z,12.77
2023-01-10T17:04:27.397Z,12.73
2023-01-10T17:06:56.664Z,12.57
2023-01-10T17:09:29.164Z,12.52
2023-01-10T17:12:12.851Z,12.61
2023-01-10T17:14:40.137Z,12.79
2023-01-10T17:17:07.445Z,13.05
2023-01-10T17:19:34.719Z,12.92
2023-01-10T17:22:01.982Z,12.95
2023-01-10T17:24:30.115Z,12.98
2023-01-10T17:26:57.441Z,13.14
2023-01-10T17:29:24.888Z,12.89
2023-01-10T17:31:52.365Z,12.84
2023-01-10T17:34:20.228Z,12.99
2023-01-10T17:36:47.577Z,12.80
2023-01-10T17:39:15.067Z,13.05
2023-01-10T17:41:42.689Z,12.87
2023-01-10T17:44:10.259Z,12.89
2023-01-10T17:46:37.517Z,12.74
2023-01-10T17:49:04.805Z,12.72
2023-01-10T17:51:32.128Z,12.84
2023-01-10T17:53:59.803Z,12.71
2023-01-10T17:56:27.129Z,12.88
2023-01-10T17:58:54.484Z,12.72
2023-01-10T18:01:25.359Z,12.89
2023-01-10T18:03:53.251Z,13.13
2023-01-10T18:06:25.173Z,13.20
2023-01-10T18:08:53.636Z,13.15
2023-01-10T18:11:22.848Z,13.15
2023-01-10T18:13:50.200Z,13.28
2023-01-10T18:16:17.601Z,13.40
2023-01-10T18:18:44.949Z,13.08
2023-01-10T18:21:13.938Z,13.20
2023-01-10T18:23:41.441Z,13.22
2023-01-10T18:26:10.590Z,13.29
2023-01-10T18:28:43.295Z,13.26
2023-01-10T18:31:16.211Z,13.49
2023-01-10T18:33:44.978Z,13.60
2023-01-10T18:36:17.691Z,13.62
2023-01-10T18:38:46.133Z,13.45
2023-01-10T18:41:14.435Z,13.51
2023-01-10T18:43:41.823Z,13.67
2023-01-10T18:46:21.103Z,13.71
2023-01-10T18:48:51.303Z,13.72
2023-01-10T18:51:19.220Z,13.61
2023-01-10T18:53:47.684Z,13.64
2023-01-10T18:56:16.155Z,13.65
2023-01-10T18:58:44.063Z,13.80
2023-01-10T19:01:14.257Z,13.79
2023-01-10T19:03:42.288Z,14.01
2023-01-10T19:06:12.583Z,14.02
2023-01-10T19:08:40.139Z,13.97
2023-01-10T19:11:16.420Z,13.88
2023-01-10T19:13:45.985Z,13.82
2023-01-10T19:16:17.473Z,13.98
2023-01-10T19:18:49.370Z,13.98
2023-01-10T19:21:16.710Z,13.93
2023-01-10T19:23:45.400Z,13.95
2023-01-10T19:26:13.240Z,14.08
2023-01-10T19:28:41.470Z,14.00
2023-01-10T19:31:09.310Z,14.02
2023-01-10T19:33:40.778Z,14.17
2023-01-10T19:36:08.551Z,14.09
2023-01-10T19:38:36.406Z,13.95
2023-01-10T19:41:04.199Z,14.04
2023-01-10T19:43:32.240Z,14.07
2023-01-10T19:46:00.868Z,14.08
2023-01-10T19:48:28.132Z,13.99
2023-01-10T19:50:55.366Z,14.16
2023-01-10T19:53:27.109Z,14.33
2023-01-10T19:56:04.374Z,14.62
2023-01-10T19:58:32.954Z,14.34
2023-01-10T20:01:15.226Z,14.31
2023-01-10T20:03:43.369Z,14.38
2023-01-10T20:06:13.979Z,14.66
2023-01-10T20:08:41.905Z,14.64
2023-01-10T20:11:10.035Z,14.26
2023-01-10T20:13:44.408Z,14.41
2023-01-10T20:16:16.953Z,14.32
2023-01-10T20:18:44.932Z,14.28
2023-01-10T20:21:14.108Z,14.49
2023-01-10T20:23:42.127Z,14.33
2023-01-10T20:26:15.041Z,14.52
2023-01-10T20:28:43.112Z,14.33
2023-01-10T20:31:13.664Z,14.21
2023-01-10T20:33:41.048Z,14.09
2023-01-10T20:36:11.831Z,14.26
2023-01-10T20:38:39.335Z,14.19
2023-01-10T20:41:24.169Z,14.41
2023-01-10T20:43:52.398Z,14.36
2023-01-10T20:46:25.140Z,14.36
2023-01-10T20:48:53.709Z,14.43
2023-01-10T20:51:27.223Z,14.32
2023-01-10T20:53:54.935Z,14.40
2023-01-10T20:56:24.751Z,14.62
2023-01-10T20:58:52.626Z,13.98
2023-01-10T21:01:33.204Z,14.37
2023-01-10T21:04:02.022Z,14.20
2023-01-10T21:06:29.473Z,14.35
2023-01-10T21:08:56.751Z,14.67
2023-01-10T21:11:24.088Z,14.76
2023-01-10T21:13:51.355Z,14.65
2023-01-10T21:16:21.938Z,14.39
2023-01-10T21:18:50.656Z,14.89
2023-01-10T21:21:22.421Z,14.53
2023-01-10T21:23:49.746Z,14.30
2023-01-10T21:26:17.083Z,14.23
2023-01-10T21:28:47.260Z,14.49
2023-01-10T21:31:15.718Z,14.51
2023-01-10T21:33:43.416Z,14.53
2023-01-10T21:36:12.763Z,14.59
2023-01-10T21:38:40.909Z,14.48
2023-01-10T21:41:11.856Z,14.52
2023-01-10T21:43:44.130Z,14.53
2023-01-10T21:46:11.914Z,14.42
2023-01-10T21:48:39.714Z,14.52
2023-01-10T21:51:07.072Z,14.32
2023-01-10T21:53:34.471Z,14.48
2023-01-10T21:56:01.853Z,14.54
2023-01-10T21:58:29.215Z,14.47
2023-01-10T22:00:58.861Z,14.66
2023-01-10T22:03:26.651Z,14.51
2023-01-10T22:05:54.481Z,14.50
2023-01-10T22:08:21.821Z,14.35
2023-01-10T22:10:49.118Z,14.21
2023-01-10T22:13:16.400Z,14.39
2023-01-10T22:15:44.385Z,14.47
2023-01-10T22:18:11.688Z,14.40
2023-01-10T22:20:38.981Z,14.59
2023-01-10T22:23:06.307Z,14.91
2023-01-10T22:25:33.508Z,14.75
2023-01-10T22:28:00.827Z,14.56
2023-01-10T22:30:28.051Z,14.86
2023-01-10T22:32:56.803Z,14.70
2023-01-10T22:35:26.221Z,14.75
2023-01-10T22:37:55.647Z,14.78
2023-01-10T22:40:23.498Z,14.68
2023-01-10T22:42:52.532Z,14.77
2023-01-10T22:45:19.873Z,14.58
2023-01-10T22:47:50.481Z,14.73
2023-01-10T22:50:18.430Z,14.91
2023-01-10T22:52:49.399Z,14.52
2023-01-10T22:55:17.729Z,14.64
2023-01-10T22:57:48.078Z,14.82
2023-01-10T23:00:15.689Z,14.97
2023-01-10T23:02:43.121Z,15.02
2023-01-10T23:05:10.393Z,15.02
2023-01-10T23:07:37.735Z,14.99
2023-01-10T23:10:07.094Z,14.69
2023-01-10T23:12:37.329Z,14.77
2023-01-10T23:15:04.970Z,14.90
2023-01-10T23:17:32.332Z,14.74
2023-01-10T23:19:59.539Z,14.75
2023-01-10T23:22:26.715Z,14.97
2023-01-10T23:24:53.936Z,15.08
2023-01-10T23:27:21.177Z,15.08
2023-01-10T23:29:48.453Z,14.86
2023-01-10T23:32:15.638Z,14.49
2023-01-10T23:34:42.838Z,14.48
2023-01-10T23:37:10.069Z,14.71
2023-01-10T23:39:37.310Z,14.78
2023-01-10T23:42:04.566Z,14.80
2023-01-10T23:44:31.913Z,14.70
2023-01-10T23:46:59.224Z,14.79
2023-01-10T23:49:26.561Z,14.88
2023-01-10T23:51:53.866Z,14.94
2023-01-10T23:54:21.351Z,15.19
2023-01-10T23:56:51.663Z,14.99
2023-01-10T23:59:19.664Z,14.84
